Hachinohe Air Base, Japan

11:28 PM JST on July 30, 2016 (GMT +0900)
Hachinohe Shi | | Change Station

Elev 0 ft 40.52 °N, 141.47 °E | Updated 6 minutes ago

Mostly Cloudy
Mostly Cloudy
78.3 °F
Feels Like 81 °F
N
0.6
Wind Variable Wind from SW
Gusts 1.2 mph

Today
High -- | Low -- °F
--% Chance of Precip.
Yesterday
High -- | Low -- °F
Precip. -- in
Pressure 29.92 in
Visibility 3.1 miles
Clouds Few 100 ft
Mostly Cloudy 200 ft
Heat Index 81 °F
Dew Point 75 °F
Humidity 89%
Rainfall in
Snow Depth Not available.
4:29 AM 6:51 PM
Waning Crescent, 13% visible
SPECI RJSA 301232Z VRB02KT 5000 BR FEW001 BKN002 23/22 Q1013 RMK 2ST001 5ST002 A2994
Pressure 29.92 in
Visibility 3.1 miles
Clouds Few 100 ft
Mostly Cloudy 200 ft
Heat Index 81 °F
Dew Point 75 °F
Humidity 89%
Rainfall in
Snow Depth Not available.
4:29 AM 6:51 PM
Waning Crescent, 13% visible
SPECI RJSA 301232Z VRB02KT 5000 BR FEW001 BKN002 23/22 Q1013 RMK 2ST001 5ST002 A2994

10-Day Weather Forecast

No radar image for this location.
×

Almanac

Astronomy

Jul. 30, 2016 Rise Set
Actual Time
Civil Twilight
Nautical Twilight
Astronomical Twilight
Moon
Length of Visible Light
Length of Day
Tomorrow will be .
, % of the Moon is Illuminated

Today's Extremes

Country Highs Country Lows

Community

WunderPhotos

Upload Photos

1,928,565 photos uploaded!

WunderBlog® & News

Nearby

Air Quality

  Air Quality AQ Index Pollutant
Not available.

Snow Depth

Station Depth Elevation

Earthquake Activity

City Distance Mag. Time & Date
Minimum magnitude displayed is 2.5.

Coastal Water Temperatures

Place Temperature

Stations

Nearby Weather Stations

Station Location Temp. Windchill Dew Point Humidity Wind Precip. Elev Updated Type